Time;durP1;ratioP1;P1;durP2;ratioP2;P2;SDS_P1;SDS_P2;PMS_P1;PMS_P2;Temp;Humidity;BMP_temperature;BMP_pressure;BME280_temperature;BME280_humidity;BME280_pressure;Samples;Min_cycle;Max_cycle;Signal;HPM_P1;HPM_P2
2024/01/25 00:00:20;;;;;;;26.10;6.00;;;7.40;99.90;;;;;;5012133;28;20042;-73
2024/01/25 00:02:47;;;;;;;37.47;4.57;;;7.40;99.90;;;;;;5013002;28;20042;-73
2024/01/25 00:05:14;;;;;;;35.53;5.68;;;7.40;99.90;;;;;;5014573;28;20187;-73
2024/01/25 00:07:48;;;;;;;28.02;4.50;;;7.30;99.90;;;;;;5019714;28;20052;-73
2024/01/25 00:10:19;;;;;;;19.90;5.13;;;7.30;99.90;;;;;;5012909;28;20131;-73
2024/01/25 00:12:46;;;;;;;29.95;5.82;;;7.30;99.90;;;;;;5025067;28;20041;-74
2024/01/25 00:15:13;;;;;;;35.75;6.97;;;7.40;99.90;;;;;;5025057;28;20053;-73
2024/01/25 00:17:40;;;;;;;29.40;6.80;;;7.30;99.90;;;;;;5017875;28;20052;-73
2024/01/25 00:20:08;;;;;;;27.08;5.65;;;7.30;99.90;;;;;;5018723;28;20049;-73
2024/01/25 00:22:36;;;;;;;35.70;6.18;;;7.30;99.90;;;;;;5000632;28;20049;-73
2024/01/25 00:25:03;;;;;;;26.65;5.03;;;7.30;99.90;;;;;;5020655;28;20055;-72
2024/01/25 00:27:30;;;;;;;24.42;5.90;;;7.30;99.90;;;;;;5013720;28;20057;-73
2024/01/25 00:29:58;;;;;;;33.10;5.95;;;7.20;99.90;;;;;;5015715;28;20119;-73
2024/01/25 00:32:25;;;;;;;21.80;5.60;;;7.20;99.90;;;;;;5016381;28;20535;-74
2024/01/25 00:34:52;;;;;;;41.95;9.73;;;7.20;99.90;;;;;;5012914;28;20053;-73
2024/01/25 00:37:19;;;;;;;26.00;5.10;;;7.30;99.90;;;;;;5011121;28;20046;-74
2024/01/25 00:39:46;;;;;;;21.30;5.22;;;7.30;99.90;;;;;;5019526;28;20049;-73
2024/01/25 00:42:14;;;;;;;32.78;6.03;;;7.20;99.90;;;;;;5016415;28;20053;-73
2024/01/25 00:44:41;;;;;;;19.17;6.20;;;7.20;99.90;;;;;;5018389;28;20045;-73
2024/01/25 00:47:09;;;;;;;31.38;5.55;;;7.20;99.90;;;;;;5023553;28;20038;-73
2024/01/25 00:49:36;;;;;;;35.10;6.55;;;7.20;99.90;;;;;;5021564;28;20547;-73
2024/01/25 00:52:03;;;;;;;29.38;6.25;;;7.20;99.90;;;;;;5011343;28;20081;-74
2024/01/25 00:54:30;;;;;;;34.88;7.57;;;7.20;99.90;;;;;;5023300;28;20060;-73
2024/01/25 00:56:58;;;;;;;28.92;5.70;;;7.20;99.90;;;;;;5020590;28;20053;-73
2024/01/25 00:59:25;;;;;;;33.75;5.22;;;7.20;99.90;;;;;;5019225;28;20491;-73
2024/01/25 01:01:53;;;;;;;25.42;5.47;;;7.20;99.90;;;;;;5022577;28;20053;-73
2024/01/25 01:04:20;;;;;;;29.90;6.35;;;7.20;99.90;;;;;;5021069;28;20481;-74
2024/01/25 01:06:47;;;;;;;30.70;5.55;;;7.20;99.90;;;;;;5022272;28;20049;-73
2024/01/25 01:09:15;;;;;;;34.35;5.22;;;7.20;99.90;;;;;;5018001;28;20072;-72
2024/01/25 01:11:41;;;;;;;23.88;4.55;;;7.20;99.90;;;;;;5024122;28;20464;-72
2024/01/25 01:14:09;;;;;;;33.95;6.88;;;7.10;99.90;;;;;;5019068;28;20409;-73
2024/01/25 01:16:36;;;;;;;31.80;6.25;;;7.10;99.90;;;;;;5025040;28;20041;-73
2024/01/25 01:19:06;;;;;;;23.52;4.72;;;7.00;99.90;;;;;;5022350;28;20152;-73
2024/01/25 01:21:34;;;;;;;47.72;7.55;;;7.00;99.90;;;;;;5019618;28;20045;-73
2024/01/25 01:24:02;;;;;;;23.48;6.15;;;6.90;99.90;;;;;;5018890;28;20053;-72
2024/01/25 01:26:29;;;;;;;30.98;6.15;;;6.90;99.90;;;;;;5024453;28;20155;-73
2024/01/25 01:28:56;;;;;;;26.98;6.20;;;6.90;99.90;;;;;;5018396;28;20438;-72
2024/01/25 01:31:22;;;;;;;27.25;5.03;;;6.80;99.90;;;;;;5023616;28;20038;-73
2024/01/25 01:33:49;;;;;;;27.92;4.18;;;6.80;99.90;;;;;;5017584;28;20103;-74
2024/01/25 01:36:16;;;;;;;21.60;4.13;;;6.80;99.90;;;;;;5024450;28;20053;-74
2024/01/25 01:38:43;;;;;;;29.67;4.65;;;6.70;99.90;;;;;;5020934;28;20073;-73
2024/01/25 01:41:13;;;;;;;31.63;4.13;;;6.70;99.90;;;;;;5015074;28;20362;-72
2024/01/25 01:43:40;;;;;;;26.52;4.95;;;6.60;99.90;;;;;;5022034;28;20045;-72
2024/01/25 01:46:13;;;;;;;34.60;6.70;;;6.60;99.90;;;;;;5020373;28;20270;-72
2024/01/25 01:48:40;;;;;;;21.92;5.00;;;6.50;99.90;;;;;;5021730;28;20045;-72
2024/01/25 01:51:08;;;;;;;39.58;6.70;;;6.50;99.90;;;;;;5024011;28;20144;-72
2024/01/25 01:53:35;;;;;;;20.85;5.38;;;6.40;99.90;;;;;;5021378;28;20053;-72
2024/01/25 01:56:03;;;;;;;24.65;7.07;;;6.40;99.90;;;;;;5017201;28;20060;-72
2024/01/25 01:58:30;;;;;;;18.20;3.80;;;6.40;99.90;;;;;;5021275;28;20298;-72
2024/01/25 02:00:57;;;;;;;22.35;4.97;;;6.30;99.90;;;;;;5001740;28;20057;-72
2024/01/25 02:03:24;;;;;;;28.35;5.72;;;6.30;99.90;;;;;;5032941;28;20049;-73
2024/01/25 02:05:51;;;;;;;22.45;5.40;;;6.30;99.90;;;;;;5023219;28;20079;-72
2024/01/25 02:08:18;;;;;;;21.70;4.85;;;6.30;99.90;;;;;;5024296;28;20068;-72
2024/01/25 02:10:45;;;;;;;25.83;5.22;;;6.30;99.90;;;;;;5021671;28;20054;-72
2024/01/25 02:13:12;;;;;;;26.25;5.55;;;6.20;99.90;;;;;;5024614;28;20056;-70
2024/01/25 02:15:38;;;;;;;17.23;4.30;;;6.20;99.90;;;;;;5030472;28;20050;-72
2024/01/25 02:18:06;;;;;;;21.65;4.97;;;6.20;99.90;;;;;;5026231;28;20099;-72
2024/01/25 02:20:33;;;;;;;20.13;4.03;;;6.20;99.90;;;;;;5016439;28;20620;-72
2024/01/25 02:23:00;;;;;;;24.63;3.92;;;6.20;99.90;;;;;;5016735;28;20124;-72
2024/01/25 02:25:26;;;;;;;18.52;4.82;;;6.10;99.90;;;;;;5020322;28;20045;-72
2024/01/25 02:27:53;;;;;;;25.85;6.00;;;6.20;99.90;;;;;;5020442;28;20045;-72
2024/01/25 02:30:21;;;;;;;24.40;4.18;;;6.10;99.90;;;;;;5019172;28;20260;-72
2024/01/25 02:32:48;;;;;;;36.83;5.50;;;6.10;99.90;;;;;;5024067;28;20550;-72
2024/01/25 02:35:15;;;;;;;23.50;4.35;;;6.00;99.90;;;;;;5022813;28;20053;-73
2024/01/25 02:37:42;;;;;;;37.95;5.10;;;6.00;99.90;;;;;;5025174;28;20097;-72
2024/01/25 02:40:10;;;;;;;20.33;5.93;;;6.00;99.90;;;;;;5019987;28;20058;-72
2024/01/25 02:42:37;;;;;;;25.35;4.50;;;5.90;99.90;;;;;;5048682;28;20163;-73
2024/01/25 02:45:04;;;;;;;20.85;4.53;;;5.90;99.90;;;;;;5019709;28;20050;-72
2024/01/25 02:47:31;;;;;;;22.73;4.95;;;6.00;99.90;;;;;;5021174;28;20671;-73
2024/01/25 02:49:58;;;;;;;21.52;3.80;;;6.00;99.90;;;;;;5020408;28;20053;-73
2024/01/25 02:52:25;;;;;;;18.92;4.72;;;6.00;99.90;;;;;;5019816;28;20046;-73
2024/01/25 02:54:52;;;;;;;24.80;4.35;;;6.00;99.90;;;;;;5023824;28;20119;-72
2024/01/25 02:57:19;;;;;;;19.67;3.95;;;5.90;99.90;;;;;;5018231;28;20045;-72
2024/01/25 02:59:46;;;;;;;27.52;6.65;;;5.90;99.90;;;;;;5019670;28;20053;-73
2024/01/25 03:02:13;;;;;;;33.28;6.63;;;5.90;99.90;;;;;;5028953;28;20042;-72
2024/01/25 03:04:40;;;;;;;21.85;3.58;;;5.90;99.90;;;;;;5017195;28;20135;-71
2024/01/25 03:07:07;;;;;;;25.13;5.55;;;5.90;99.90;;;;;;5021256;28;20052;-73
2024/01/25 03:09:34;;;;;;;19.45;4.55;;;5.90;99.90;;;;;;5026873;28;20510;-72
2024/01/25 03:12:01;;;;;;;24.80;4.70;;;5.90;99.90;;;;;;5016271;28;20076;-72
2024/01/25 03:14:28;;;;;;;24.27;3.67;;;5.90;99.90;;;;;;5018943;28;20119;-72
2024/01/25 03:16:55;;;;;;;37.97;8.10;;;5.90;99.90;;;;;;5019862;28;20053;-72
2024/01/25 03:19:24;;;;;;;22.23;4.22;;;5.80;99.90;;;;;;5022508;28;20081;-72
2024/01/25 03:21:51;;;;;;;30.67;6.13;;;5.80;99.90;;;;;;5020568;28;20082;-71
2024/01/25 03:24:18;;;;;;;14.98;4.68;;;5.80;99.90;;;;;;5018076;28;20048;-72
2024/01/25 03:26:45;;;;;;;19.77;4.03;;;5.80;99.90;;;;;;5021470;28;20049;-71
2024/01/25 03:29:12;;;;;;;17.88;4.88;;;5.80;99.90;;;;;;5021318;28;20376;-73
2024/01/25 03:31:38;;;;;;;23.00;4.70;;;5.80;99.90;;;;;;5021887;28;20071;-72
2024/01/25 03:34:05;;;;;;;22.45;5.60;;;5.90;99.90;;;;;;5018519;28;20049;-72
2024/01/25 03:36:32;;;;;;;24.38;4.05;;;5.90;99.90;;;;;;5016532;28;20136;-73
2024/01/25 03:38:59;;;;;;;13.77;3.75;;;6.00;99.90;;;;;;5028446;28;20045;-72
2024/01/25 03:41:29;;;;;;;25.98;4.32;;;6.00;99.90;;;;;;5020096;28;20045;-71
2024/01/25 03:43:55;;;;;;;18.80;3.83;;;6.00;99.90;;;;;;5014845;28;20072;-72
2024/01/25 03:46:22;;;;;;;18.88;4.22;;;6.00;99.90;;;;;;5020228;28;20061;-71
2024/01/25 03:48:49;;;;;;;23.15;3.65;;;5.90;99.90;;;;;;5017757;28;20045;-72
2024/01/25 03:51:16;;;;;;;20.30;4.95;;;6.00;99.90;;;;;;5020429;28;20052;-71
2024/01/25 03:53:43;;;;;;;20.10;4.43;;;6.00;99.90;;;;;;5016549;28;20099;-73
2024/01/25 03:56:12;;;;;;;28.60;4.57;;;6.10;99.90;;;;;;5012059;28;20123;-73
2024/01/25 03:58:39;;;;;;;13.63;3.60;;;6.10;99.90;;;;;;5017387;28;20490;-73
2024/01/25 04:01:06;;;;;;;13.73;3.70;;;6.10;99.90;;;;;;5021841;28;20053;-73
2024/01/25 04:03:33;;;;;;;20.17;3.95;;;6.20;99.90;;;;;;5018814;28;20050;-71
2024/01/25 04:06:00;;;;;;;25.00;4.53;;;6.20;99.90;;;;;;5019699;28;20049;-72
2024/01/25 04:08:27;;;;;;;19.65;3.53;;;6.20;99.90;;;;;;5020828;28;20496;-71
2024/01/25 04:10:53;;;;;;;25.08;4.63;;;6.20;99.90;;;;;;5022800;28;20512;-71
2024/01/25 04:13:20;;;;;;;21.50;6.38;;;6.30;99.90;;;;;;5017189;28;20041;-72
2024/01/25 04:15:47;;;;;;;19.50;3.78;;;6.20;99.90;;;;;;5021001;28;20045;-70
2024/01/25 04:18:14;;;;;;;30.08;7.43;;;6.20;99.90;;;;;;5022063;28;20068;-72
2024/01/25 04:20:41;;;;;;;27.92;3.65;;;6.10;99.90;;;;;;5025141;28;20063;-72
2024/01/25 04:23:08;;;;;;;21.77;4.22;;;6.20;99.90;;;;;;5024763;28;20052;-72
2024/01/25 04:25:35;;;;;;;24.55;4.60;;;6.20;99.90;;;;;;5022969;28;20056;-72
2024/01/25 04:28:02;;;;;;;16.70;4.68;;;6.30;99.90;;;;;;5023359;28;20049;-72
2024/01/25 04:30:30;;;;;;;21.90;3.97;;;6.30;99.90;;;;;;5019363;28;20080;-72
2024/01/25 04:32:58;;;;;;;26.95;5.53;;;6.40;99.90;;;;;;5022253;28;20041;-73
2024/01/25 04:35:26;;;;;;;28.85;5.18;;;6.40;99.90;;;;;;5020540;28;20125;-72
2024/01/25 04:37:52;;;;;;;26.63;4.03;;;6.50;99.90;;;;;;5027328;28;20491;-71
2024/01/25 04:40:19;;;;;;;22.50;4.57;;;6.60;99.90;;;;;;5015194;28;20053;-72
2024/01/25 04:42:46;;;;;;;19.98;4.28;;;6.60;99.90;;;;;;5023238;28;20045;-71
2024/01/25 04:45:13;;;;;;;22.92;4.68;;;6.70;99.90;;;;;;5020016;28;20080;-72
2024/01/25 04:47:40;;;;;;;20.85;3.40;;;6.70;99.90;;;;;;5023369;28;20463;-72
2024/01/25 04:50:07;;;;;;;35.63;7.93;;;6.70;99.90;;;;;;5022991;28;20183;-71
2024/01/25 04:52:34;;;;;;;23.20;4.50;;;6.80;99.90;;;;;;5021993;28;20049;-72
2024/01/25 04:55:01;;;;;;;20.52;4.30;;;6.80;99.90;;;;;;5020405;28;20057;-72
2024/01/25 04:57:28;;;;;;;29.13;7.57;;;6.90;99.90;;;;;;5021490;28;20435;-71
2024/01/25 04:59:55;;;;;;;22.67;4.03;;;7.00;99.90;;;;;;5024501;28;20519;-72
2024/01/25 05:02:21;;;;;;;19.38;4.72;;;7.00;99.90;;;;;;5020211;28;20129;-72
2024/01/25 05:04:48;;;;;;;27.27;4.40;;;7.10;99.90;;;;;;5015070;28;20054;-74
2024/01/25 05:07:16;;;;;;;22.98;4.20;;;7.20;99.90;;;;;;5019617;28;20140;-73
2024/01/25 05:09:43;;;;;;;34.53;5.03;;;7.20;99.90;;;;;;5021719;28;20092;-71
2024/01/25 05:12:10;;;;;;;26.58;4.88;;;7.30;99.90;;;;;;5015608;28;20333;-72
2024/01/25 05:14:42;;;;;;;27.27;5.85;;;7.40;99.90;;;;;;5031368;28;20046;-72
2024/01/25 05:17:08;;;;;;;26.27;5.70;;;7.40;99.90;;;;;;5022342;28;20504;-72
2024/01/25 05:19:35;;;;;;;31.00;10.45;;;7.50;99.90;;;;;;5022809;28;20115;-72
2024/01/25 05:22:06;;;;;;;23.08;4.20;;;7.60;99.90;;;;;;5021004;28;20045;-71
2024/01/25 05:24:33;;;;;;;28.85;5.93;;;7.70;99.90;;;;;;5019447;28;20071;-71
2024/01/25 05:27:00;;;;;;;25.35;4.20;;;7.80;99.90;;;;;;5015554;28;20042;-73
2024/01/25 05:29:27;;;;;;;32.80;5.35;;;7.80;99.90;;;;;;5023422;28;20125;-72
2024/01/25 05:31:54;;;;;;;23.95;5.05;;;7.80;99.90;;;;;;5019970;28;20418;-72
2024/01/25 05:34:21;;;;;;;24.15;3.92;;;7.90;99.90;;;;;;5022270;28;20071;-72
2024/01/25 05:36:48;;;;;;;29.63;5.93;;;8.00;99.90;;;;;;5015203;28;20085;-71
2024/01/25 05:39:15;;;;;;;32.90;4.72;;;8.00;99.90;;;;;;5019380;28;20081;-72
2024/01/25 05:41:44;;;;;;;18.70;4.35;;;8.00;99.90;;;;;;5017960;28;20045;-69
2024/01/25 05:44:12;;;;;;;34.88;6.68;;;8.00;99.90;;;;;;5021406;28;20664;-71
2024/01/25 05:46:39;;;;;;;28.75;5.32;;;8.10;99.90;;;;;;5026718;28;20530;-71
2024/01/25 05:49:06;;;;;;;28.77;4.75;;;8.10;99.90;;;;;;5020522;28;20095;-72
2024/01/25 05:51:33;;;;;;;33.72;6.70;;;8.20;99.90;;;;;;5027253;28;20095;-72
2024/01/25 05:54:00;;;;;;;28.90;5.03;;;8.20;99.90;;;;;;5021122;28;20057;-72
2024/01/25 05:56:27;;;;;;;37.40;6.40;;;8.30;99.90;;;;;;5025555;28;20544;-71
2024/01/25 05:58:54;;;;;;;25.55;6.80;;;8.30;99.90;;;;;;5022862;28;20045;-72
2024/01/25 06:01:20;;;;;;;44.78;6.85;;;8.40;99.90;;;;;;5026039;28;20120;-72
2024/01/25 06:03:47;;;;;;;28.65;6.57;;;8.40;99.90;;;;;;5019225;28;20075;-72
2024/01/25 06:06:14;;;;;;;38.05;8.43;;;8.50;99.90;;;;;;5024177;28;20545;-71
2024/01/25 06:08:41;;;;;;;48.30;9.38;;;8.50;99.90;;;;;;5015808;28;20528;-72
2024/01/25 06:11:17;;;;;;;30.60;7.80;;;8.50;99.90;;;;;;5023983;28;20053;-73
2024/01/25 06:13:44;;;;;;;41.17;8.40;;;8.60;99.90;;;;;;5021317;28;20485;-71
2024/01/25 06:16:11;;;;;;;36.85;6.25;;;8.60;99.90;;;;;;5024472;28;20452;-72
2024/01/25 06:18:38;;;;;;;37.03;7.10;;;8.60;99.90;;;;;;5028981;28;20061;-72
2024/01/25 06:21:05;;;;;;;48.60;8.65;;;8.60;99.90;;;;;;5022768;28;20156;-73
2024/01/25 06:23:32;;;;;;;28.05;6.00;;;8.60;99.90;;;;;;5015007;28;20223;-73
2024/01/25 06:25:59;;;;;;;41.10;7.00;;;8.70;99.90;;;;;;5023107;28;20180;-72
2024/01/25 06:28:25;;;;;;;31.77;6.00;;;8.70;99.90;;;;;;5030841;28;20065;-73
2024/01/25 06:30:52;;;;;;;36.28;8.27;;;8.70;99.90;;;;;;5019406;28;20536;-72
2024/01/25 06:33:19;;;;;;;31.35;6.35;;;8.70;99.90;;;;;;5022539;28;20048;-72
2024/01/25 06:35:47;;;;;;;30.60;7.43;;;8.80;99.90;;;;;;5023744;28;20077;-73
2024/01/25 06:38:13;;;;;;;26.08;5.40;;;8.80;99.90;;;;;;5020407;28;20405;-71
2024/01/25 06:40:40;;;;;;;28.08;6.28;;;8.80;99.90;;;;;;5022047;28;20049;-72
2024/01/25 06:43:07;;;;;;;41.13;6.93;;;8.80;99.90;;;;;;5023418;28;20049;-72
2024/01/25 06:45:34;;;;;;;27.58;6.78;;;8.80;99.90;;;;;;5020994;28;20089;-72
2024/01/25 06:48:01;;;;;;;33.78;7.82;;;8.80;99.90;;;;;;5021625;28;20041;-73
2024/01/25 06:50:28;;;;;;;28.98;4.88;;;8.80;99.90;;;;;;5016063;28;20127;-73
2024/01/25 06:52:55;;;;;;;19.30;4.45;;;8.80;99.90;;;;;;5021047;28;20080;-72
2024/01/25 06:55:22;;;;;;;24.50;4.30;;;8.90;99.90;;;;;;5021102;28;20053;-72
2024/01/25 06:57:49;;;;;;;25.92;4.47;;;8.90;99.90;;;;;;5022201;28;20053;-73
2024/01/25 07:00:16;;;;;;;23.17;5.40;;;8.90;99.90;;;;;;5016985;28;20045;-73
2024/01/25 07:02:44;;;;;;;18.50;4.25;;;9.00;99.90;;;;;;5018369;28;20041;-73
2024/01/25 07:05:12;;;;;;;12.45;2.92;;;9.00;99.90;;;;;;5016263;28;20077;-72
2024/01/25 07:07:39;;;;;;;16.27;3.88;;;9.00;99.90;;;;;;5024731;28;20053;-72
2024/01/25 07:10:07;;;;;;;14.10;2.72;;;9.00;99.90;;;;;;5017632;28;20073;-71
2024/01/25 07:12:34;;;;;;;22.02;3.83;;;9.00;99.90;;;;;;5023309;28;20154;-70
2024/01/25 07:15:01;;;;;;;12.18;2.85;;;9.10;99.90;;;;;;5020856;28;20128;-71
2024/01/25 07:17:28;;;;;;;18.13;3.33;;;9.10;99.90;;;;;;5019515;28;20046;-71
2024/01/25 07:19:55;;;;;;;20.38;3.33;;;9.10;99.90;;;;;;5015523;28;20082;-71
2024/01/25 07:22:23;;;;;;;11.65;3.03;;;9.10;99.90;;;;;;5017745;28;20057;-72
2024/01/25 07:24:49;;;;;;;22.33;4.53;;;9.10;99.90;;;;;;5016229;28;20040;-72
2024/01/25 07:27:17;;;;;;;16.27;4.75;;;9.10;99.90;;;;;;5017469;28;20049;-73
2024/01/25 07:29:45;;;;;;;19.55;3.88;;;9.10;99.90;;;;;;5020608;28;20045;-70
2024/01/25 07:32:12;;;;;;;16.60;2.83;;;9.20;99.90;;;;;;4668843;28;10000720;-71
2024/01/25 07:34:39;;;;;;;24.45;4.15;;;9.20;99.90;;;;;;5024877;28;20099;-69
2024/01/25 07:37:06;;;;;;;16.40;3.72;;;9.20;99.90;;;;;;5014988;28;20052;-70
2024/01/25 07:39:33;;;;;;;19.35;3.83;;;9.20;99.90;;;;;;5017681;28;20282;-69
2024/01/25 07:42:00;;;;;;;17.05;3.38;;;9.20;99.90;;;;;;5011391;28;20139;-67
2024/01/25 07:44:26;;;;;;;14.45;4.07;;;9.20;99.90;;;;;;5018046;28;20127;-68
2024/01/25 07:46:53;;;;;;;19.15;3.70;;;9.20;99.90;;;;;;5012000;28;20060;-68
2024/01/25 07:49:20;;;;;;;14.63;3.53;;;9.20;99.90;;;;;;5014024;28;20056;-72
2024/01/25 07:51:47;;;;;;;17.52;3.75;;;9.20;99.90;;;;;;5013908;28;20047;-69
2024/01/25 07:54:14;;;;;;;12.13;3.10;;;9.20;99.90;;;;;;5008339;28;20140;-70
2024/01/25 07:56:43;;;;;;;11.52;3.35;;;9.20;99.90;;;;;;5013521;28;20053;-68
2024/01/25 07:59:09;;;;;;;12.05;3.35;;;9.30;99.90;;;;;;5013152;28;20076;-69
2024/01/25 08:01:36;;;;;;;12.63;4.32;;;9.30;99.90;;;;;;5014691;28;20103;-69
2024/01/25 08:04:03;;;;;;;15.48;3.80;;;9.30;99.90;;;;;;5018191;28;20057;-69
2024/01/25 08:06:31;;;;;;;12.52;3.10;;;9.30;99.90;;;;;;5015097;28;20060;-69
2024/01/25 08:08:58;;;;;;;10.43;3.08;;;9.30;99.90;;;;;;5016606;28;20117;-70
2024/01/25 08:11:25;;;;;;;10.23;2.95;;;9.30;99.90;;;;;;5012773;28;20408;-71
2024/01/25 08:13:52;;;;;;;9.55;1.90;;;9.30;99.90;;;;;;5019800;28;20057;-70
2024/01/25 08:16:19;;;;;;;5.53;1.70;;;9.30;99.90;;;;;;5014857;28;20053;-69
2024/01/25 08:18:49;;;;;;;8.35;2.47;;;9.30;99.90;;;;;;5013393;28;20073;-70
2024/01/25 08:21:16;;;;;;;8.68;1.90;;;9.30;99.90;;;;;;5039399;28;20049;-70
2024/01/25 08:23:44;;;;;;;12.52;2.47;;;9.40;99.90;;;;;;5013263;28;20049;-70
2024/01/25 08:26:12;;;;;;;7.00;1.58;;;9.40;99.90;;;;;;5014710;28;20054;-69
2024/01/25 08:28:39;;;;;;;4.05;1.30;;;9.40;99.90;;;;;;5014066;28;20045;-69
2024/01/25 08:31:07;;;;;;;7.65;1.60;;;9.40;99.90;;;;;;5014956;28;20049;-69
2024/01/25 08:33:34;;;;;;;8.25;1.48;;;9.40;99.90;;;;;;5017403;28;20049;-70
2024/01/25 08:36:01;;;;;;;4.28;1.10;;;9.40;99.90;;;;;;5023324;28;20077;-70
2024/01/25 08:38:29;;;;;;;2.50;1.10;;;9.50;99.90;;;;;;5014433;28;20047;-70
2024/01/25 08:40:55;;;;;;;4.80;1.65;;;9.50;99.90;;;;;;5020275;28;20083;-69
2024/01/25 08:43:22;;;;;;;3.05;1.00;;;9.60;99.90;;;;;;5010807;28;20057;-70
2024/01/25 08:45:49;;;;;;;3.47;1.35;;;9.60;99.90;;;;;;5028390;28;20095;-72
2024/01/25 08:48:16;;;;;;;6.88;1.30;;;9.60;99.90;;;;;;5017246;28;20041;-72
2024/01/25 08:50:44;;;;;;;4.25;1.77;;;9.70;99.90;;;;;;5019286;28;20060;-72
2024/01/25 08:53:12;;;;;;;4.47;1.63;;;9.70;99.90;;;;;;5012969;28;20049;-76
2024/01/25 08:55:39;;;;;;;4.03;2.03;;;9.70;99.90;;;;;;5018602;28;20092;-72
2024/01/25 08:58:06;;;;;;;6.22;1.98;;;9.80;99.90;;;;;;5019594;28;20064;-71
2024/01/25 09:00:33;;;;;;;3.30;1.85;;;9.80;99.90;;;;;;5020190;28;20045;-70
2024/01/25 09:03:00;;;;;;;4.65;2.33;;;9.80;99.90;;;;;;5020469;28;20139;-70
2024/01/25 09:05:28;;;;;;;3.83;1.95;;;9.80;99.90;;;;;;5018209;28;20057;-70
2024/01/25 09:07:55;;;;;;;4.78;2.08;;;9.90;99.90;;;;;;5021296;28;20089;-70
2024/01/25 09:10:22;;;;;;;3.17;1.88;;;9.90;99.90;;;;;;5018864;28;20079;-70
2024/01/25 09:12:49;;;;;;;5.95;2.55;;;9.90;99.90;;;;;;5023977;28;20135;-70
2024/01/25 09:15:16;;;;;;;3.35;1.83;;;9.90;99.90;;;;;;5023943;28;20041;-70
2024/01/25 09:17:44;;;;;;;4.75;1.45;;;10.00;99.90;;;;;;5021506;28;20038;-70
2024/01/25 09:20:12;;;;;;;7.07;2.20;;;10.00;99.90;;;;;;5019003;28;20146;-71
2024/01/25 09:22:39;;;;;;;7.18;1.90;;;10.10;99.90;;;;;;5026122;28;20144;-70
2024/01/25 09:25:07;;;;;;;4.75;2.28;;;10.20;99.90;;;;;;5023088;28;20073;-68
2024/01/25 09:27:37;;;;;;;5.70;2.67;;;10.20;99.90;;;;;;5025808;28;20049;-70
2024/01/25 09:30:05;;;;;;;8.05;1.90;;;10.20;99.90;;;;;;5018857;28;20046;-70
2024/01/25 09:32:32;;;;;;;6.43;2.40;;;10.30;99.90;;;;;;5021469;28;20107;-70
2024/01/25 09:34:59;;;;;;;6.75;2.60;;;10.30;99.90;;;;;;5021619;28;20046;-72
2024/01/25 09:37:26;;;;;;;4.75;2.67;;;10.40;99.90;;;;;;5023736;28;20508;-69
2024/01/25 09:39:54;;;;;;;10.32;3.17;;;10.40;99.90;;;;;;5016329;28;20073;-69
2024/01/25 09:42:21;;;;;;;6.18;2.20;;;10.50;99.90;;;;;;5018981;28;20072;-71
2024/01/25 09:44:48;;;;;;;7.38;2.72;;;10.50;99.90;;;;;;5016606;28;20487;-71
2024/01/25 09:47:16;;;;;;;7.03;2.85;;;10.60;99.90;;;;;;5024784;28;20061;-69
2024/01/25 09:49:44;;;;;;;7.43;2.60;;;10.60;99.90;;;;;;5020371;28;20128;-69
2024/01/25 09:52:13;;;;;;;12.52;3.55;;;10.70;99.90;;;;;;5018179;28;20485;-71
2024/01/25 09:54:40;;;;;;;8.55;2.72;;;10.70;99.90;;;;;;5022379;28;20136;-70
2024/01/25 09:57:18;;;;;;;9.85;3.25;;;10.80;99.90;;;;;;5019411;28;20144;-69
2024/01/25 09:59:45;;;;;;;7.93;2.47;;;10.80;99.90;;;;;;5011167;28;20523;-68
2024/01/25 10:02:12;;;;;;;9.10;3.25;;;10.80;99.90;;;;;;5019822;28;20470;-69
2024/01/25 10:04:39;;;;;;;8.80;2.97;;;10.90;99.90;;;;;;5020617;28;20046;-69
2024/01/25 10:07:06;;;;;;;8.50;3.22;;;10.90;99.90;;;;;;5021665;28;20048;-69
2024/01/25 10:09:43;;;;;;;6.38;2.80;;;11.00;99.90;;;;;;5038311;28;20056;-69
2024/01/25 10:12:10;;;;;;;8.45;2.20;;;11.00;99.90;;;;;;5017298;28;20475;-70
2024/01/25 10:14:45;;;;;;;6.93;2.63;;;11.00;99.90;;;;;;5024418;28;20037;-71
2024/01/25 10:17:12;;;;;;;7.28;1.92;;;11.10;99.90;;;;;;5021544;28;20045;-70
2024/01/25 10:19:43;;;;;;;7.45;1.92;;;11.10;99.90;;;;;;5024717;28;20301;-69
2024/01/25 10:22:12;;;;;;;7.80;2.15;;;11.20;99.90;;;;;;5025054;28;20401;-71
2024/01/25 10:24:41;;;;;;;6.78;2.33;;;11.20;99.90;;;;;;5024296;28;20045;-70
2024/01/25 10:27:08;;;;;;;9.70;1.70;;;11.30;99.90;;;;;;5015200;28;20141;-70
2024/01/25 10:29:35;;;;;;;8.60;2.00;;;11.30;99.90;;;;;;5025580;28;20288;-69
2024/01/25 10:32:05;;;;;;;4.15;1.50;;;11.30;99.90;;;;;;5017071;28;20057;-70
2024/01/25 10:34:32;;;;;;;2.70;1.52;;;11.40;99.90;;;;;;5027248;28;20045;-70
2024/01/25 10:37:00;;;;;;;8.57;1.90;;;11.40;99.90;;;;;;5001418;28;20049;-70
2024/01/25 10:39:27;;;;;;;12.52;3.63;;;11.40;99.90;;;;;;5021936;28;20075;-69
2024/01/25 10:41:54;;;;;;;9.55;2.47;;;11.50;99.90;;;;;;5002228;28;20080;-70
2024/01/25 10:44:21;;;;;;;6.53;1.50;;;11.50;99.90;;;;;;5008172;28;20104;-69
2024/01/25 10:46:48;;;;;;;11.55;2.08;;;11.50;99.90;;;;;;5018975;28;20134;-69
2024/01/25 10:49:16;;;;;;;8.80;1.65;;;11.60;99.90;;;;;;5019629;28;20535;-70
2024/01/25 10:51:44;;;;;;;6.38;1.80;;;11.60;99.90;;;;;;5024412;28;20460;-70
2024/01/25 10:54:12;;;;;;;11.90;2.40;;;11.60;99.90;;;;;;5022506;28;20579;-71
2024/01/25 10:56:40;;;;;;;12.68;2.92;;;11.70;99.90;;;;;;5020846;28;20081;-71
2024/01/25 10:59:08;;;;;;;9.95;2.65;;;11.60;99.90;;;;;;5018478;28;20061;-70
2024/01/25 11:01:35;;;;;;;8.30;2.33;;;11.70;99.90;;;;;;5020637;28;20433;-70
2024/01/25 11:04:02;;;;;;;14.48;3.45;;;11.70;99.90;;;;;;5021112;28;20488;-70
2024/01/25 11:06:29;;;;;;;11.05;2.33;;;11.70;99.90;;;;;;5023445;28;20268;-69
2024/01/25 11:09:06;;;;;;;6.35;1.88;;;11.80;99.90;;;;;;5020926;28;20137;-70
2024/01/25 11:11:35;;;;;;;9.27;1.98;;;11.80;99.90;;;;;;5024423;28;20511;-70
2024/01/25 11:14:02;;;;;;;11.90;3.60;;;11.80;99.90;;;;;;5019928;28;20077;-70
2024/01/25 11:16:31;;;;;;;11.27;2.90;;;11.80;99.90;;;;;;5024495;28;20054;-69
2024/01/25 11:19:04;;;;;;;14.43;3.38;;;11.90;99.90;;;;;;5015732;28;20524;-69
2024/01/25 11:21:38;;;;;;;;;;;12.00;99.90;;;;;;5025985;28;20049;-69
2024/01/25 11:24:10;;;;;;;8.45;2.50;;;12.00;99.90;;;;;;5019713;28;20376;-69
2024/01/25 11:26:38;;;;;;;12.20;2.70;;;12.00;99.90;;;;;;5017342;28;20060;-69
2024/01/25 11:29:05;;;;;;;14.18;3.10;;;12.10;99.90;;;;;;5017354;28;20480;-71
2024/01/25 11:31:32;;;;;;;15.82;3.10;;;12.10;99.90;;;;;;5024529;28;20057;-71
2024/01/25 11:33:59;;;;;;;21.23;3.90;;;12.20;99.90;;;;;;5016152;28;20555;-71
2024/01/25 11:36:27;;;;;;;12.93;2.95;;;12.20;99.90;;;;;;5023903;28;20050;-71
2024/01/25 11:38:54;;;;;;;11.57;3.10;;;12.20;99.90;;;;;;5018302;28;20046;-70
2024/01/25 11:41:21;;;;;;;16.10;3.17;;;12.30;99.90;;;;;;5025198;28;20137;-69
2024/01/25 11:43:51;;;;;;;20.55;3.08;;;12.40;99.90;;;;;;5021843;28;20563;-69
2024/01/25 11:46:18;;;;;;;13.70;3.38;;;12.30;99.90;;;;;;5020825;28;20125;-70
2024/01/25 11:48:45;;;;;;;9.82;2.75;;;12.40;99.90;;;;;;5021280;28;20061;-70
2024/01/25 11:51:12;;;;;;;13.90;2.95;;;12.40;99.90;;;;;;5017531;28;20386;-70
2024/01/25 11:53:39;;;;;;;15.75;3.88;;;12.40;99.90;;;;;;5027136;28;20081;-70
2024/01/25 11:56:17;;;;;;;12.18;3.08;;;12.50;99.90;;;;;;5012045;28;20054;-69
2024/01/25 11:58:45;;;;;;;11.13;4.15;;;12.50;99.90;;;;;;5021901;28;20129;-70
2024/01/25 12:01:12;;;;;;;21.60;4.00;;;12.60;99.90;;;;;;5033970;28;20509;-69
2024/01/25 12:03:40;;;;;;;13.98;2.85;;;12.60;99.90;;;;;;5020028;28;20129;-71
2024/01/25 12:06:09;;;;;;;8.95;2.70;;;12.80;99.90;;;;;;5023043;28;20147;-70
2024/01/25 12:08:36;;;;;;;20.30;2.80;;;12.80;99.90;;;;;;5023116;28;20052;-70
2024/01/25 12:11:09;;;;;;;16.33;4.75;;;12.70;99.90;;;;;;5022231;28;20231;-71
2024/01/25 12:13:38;;;;;;;20.10;3.95;;;12.60;99.90;;;;;;5038108;28;20570;-69
2024/01/25 12:16:06;;;;;;;15.18;3.17;;;12.70;99.90;;;;;;5022557;28;20579;-70
2024/01/25 12:18:34;;;;;;;9.77;2.97;;;12.60;99.90;;;;;;5025378;28;20045;-70
2024/01/25 12:21:02;;;;;;;15.98;3.30;;;12.60;99.90;;;;;;5022136;28;20049;-70
2024/01/25 12:23:32;;;;;;;10.88;2.42;;;12.70;99.90;;;;;;5025736;28;20049;-70
2024/01/25 12:26:01;;;;;;;23.67;5.90;;;12.70;99.90;;;;;;5016615;28;20239;-69
2024/01/25 12:28:29;;;;;;;13.32;3.60;;;12.60;99.90;;;;;;5028012;28;20063;-71
2024/01/25 12:30:56;;;;;;;10.82;3.42;;;12.70;99.90;;;;;;5012714;28;20057;-70
2024/01/25 12:33:23;;;;;;;13.73;3.65;;;12.70;99.90;;;;;;5026121;28;20069;-70
2024/01/25 12:35:54;;;;;;;15.57;3.45;;;12.70;99.90;;;;;;5021610;28;20342;-69
2024/01/25 12:38:22;;;;;;;10.50;2.40;;;12.80;99.90;;;;;;5028217;28;20085;-70
2024/01/25 12:40:49;;;;;;;10.27;2.67;;;12.70;99.90;;;;;;5027705;28;20041;-70
2024/01/25 12:43:24;;;;;;;11.85;2.75;;;12.70;99.90;;;;;;5028359;28;20867;-70
2024/01/25 12:45:52;;;;;;;14.90;2.80;;;12.70;99.90;;;;;;5026460;28;20045;-70